createdAt,value
2019-05-22T00:01:17.223Z,81.49
2019-05-22T00:03:34.209Z,81.46
2019-05-22T00:05:43.039Z,81.50
2019-05-22T00:07:51.228Z,81.55
2019-05-22T00:09:59.346Z,81.58
2019-05-22T00:12:09.546Z,81.51
2019-05-22T00:14:16.188Z,81.37
2019-05-22T00:16:24.585Z,81.44
2019-05-22T00:18:34.074Z,81.42
2019-05-22T00:20:43.862Z,81.49
2019-05-22T00:22:52.371Z,81.43
2019-05-22T00:25:00.655Z,81.40
2019-05-22T00:27:09.865Z,81.53
2019-05-22T00:29:16.373Z,81.58
2019-05-22T00:31:25.786Z,81.68
2019-05-22T00:33:36.204Z,81.86
2019-05-22T00:35:42.283Z,82.16
2019-05-22T00:37:50.761Z,82.27
2019-05-22T00:39:57.935Z,82.47
2019-05-22T00:42:07.275Z,82.60
2019-05-22T00:44:14.245Z,82.78
2019-05-22T00:46:21.736Z,82.90
2019-05-22T00:48:30.993Z,83.02
2019-05-22T00:50:54.780Z,83.12
2019-05-22T00:53:05.377Z,83.35
2019-05-22T00:55:28.617Z,83.64
2019-05-22T00:57:40.060Z,83.78
2019-05-22T00:59:48.612Z,83.79
2019-05-22T01:02:15.276Z,83.85
2019-05-22T01:04:38.947Z,84.00
2019-05-22T01:06:48.447Z,84.11
2019-05-22T01:08:56.628Z,84.06
2019-05-22T01:11:05.117Z,84.05
2019-05-22T01:13:14.065Z,84.09
2019-05-22T01:15:22.433Z,84.12
2019-05-22T01:17:33.625Z,84.17
2019-05-22T01:19:40.990Z,84.11
2019-05-22T01:21:49.006Z,83.88
2019-05-22T01:23:58.093Z,83.95
2019-05-22T01:26:06.005Z,83.96
2019-05-22T01:28:13.887Z,83.96
2019-05-22T01:30:23.735Z,83.65
2019-05-22T01:32:35.441Z,83.53
2019-05-22T01:34:43.846Z,83.75
2019-05-22T01:36:51.729Z,83.70
2019-05-22T01:39:04.427Z,83.76
2019-05-22T01:41:35.994Z,83.82
2019-05-22T01:43:44.095Z,84.01
2019-05-22T01:45:53.808Z,84.04
2019-05-22T01:48:05.925Z,84.22
2019-05-22T01:50:21.037Z,84.33
2019-05-22T01:52:28.581Z,84.26
2019-05-22T01:54:35.809Z,84.27
2019-05-22T01:56:43.584Z,84.21
2019-05-22T01:58:51.000Z,84.25
2019-05-22T02:01:00.221Z,84.29
2019-05-22T02:03:10.722Z,84.10
2019-05-22T02:05:18.996Z,83.99
2019-05-22T02:07:29.318Z,83.70
2019-05-22T02:09:41.803Z,83.52
2019-05-22T02:11:54.473Z,83.28
2019-05-22T02:14:12.502Z,83.10
2019-05-22T02:16:20.287Z,82.77
2019-05-22T02:18:29.012Z,82.77
2019-05-22T02:20:38.340Z,82.62
2019-05-22T02:22:46.568Z,82.34
2019-05-22T02:24:54.926Z,82.21
2019-05-22T02:27:03.347Z,82.09
2019-05-22T02:29:12.165Z,81.89
2019-05-22T02:31:23.508Z,81.67
2019-05-22T02:33:32.421Z,81.66
2019-05-22T02:35:41.134Z,81.54
2019-05-22T02:37:48.488Z,81.29
2019-05-22T02:39:55.917Z,81.01
2019-05-22T02:42:16.375Z,80.76
2019-05-22T02:44:25.629Z,80.60
2019-05-22T02:46:32.277Z,80.44
2019-05-22T02:48:42.483Z,80.45
2019-05-22T02:50:50.061Z,80.37
2019-05-22T02:52:57.343Z,80.20
2019-05-22T02:55:05.824Z,80.30
2019-05-22T02:57:13.860Z,80.12
2019-05-22T02:59:21.227Z,79.96
2019-05-22T03:01:28.129Z,79.89
2019-05-22T03:03:36.778Z,79.63
2019-05-22T03:05:43.571Z,79.67
2019-05-22T03:07:50.578Z,79.47
2019-05-22T03:09:57.887Z,79.50
2019-05-22T03:12:07.357Z,79.36
2019-05-22T03:14:15.662Z,79.46
2019-05-22T03:16:23.024Z,79.47
2019-05-22T03:18:30.595Z,79.62
2019-05-22T03:20:40.439Z,79.82
2019-05-22T03:23:06.996Z,80.00
2019-05-22T03:25:18.215Z,80.00
2019-05-22T03:27:39.063Z,80.07
2019-05-22T03:29:55.396Z,80.10
2019-05-22T03:32:02.409Z,80.07
2019-05-22T03:34:10.491Z,79.97
2019-05-22T03:36:18.786Z,79.78
2019-05-22T03:38:26.701Z,79.86
2019-05-22T03:40:35.100Z,79.73
2019-05-22T03:42:43.004Z,79.65
2019-05-22T03:44:53.478Z,79.45
2019-05-22T03:47:00.488Z,79.47
2019-05-22T03:49:27.480Z,79.31
2019-05-22T03:51:18.781Z,78.93
2019-05-22T03:53:26.053Z,78.85
2019-05-22T03:55:32.904Z,78.69
2019-05-22T03:57:40.010Z,78.21
2019-05-22T03:59:46.926Z,77.96
2019-05-22T04:01:54.914Z,78.01
2019-05-22T04:04:04.861Z,77.38
2019-05-22T04:06:12.549Z,77.14
2019-05-22T04:08:22.143Z,76.25
2019-05-22T04:10:41.069Z,72.45
2019-05-22T04:12:45.494Z,67.95
2019-05-22T04:14:52.838Z,63.78
2019-05-22T04:17:00.947Z,60.25
2019-05-22T04:19:08.178Z,57.72
2019-05-22T04:21:14.654Z,56.41
2019-05-22T04:23:22.606Z,54.55
2019-05-22T04:25:30.048Z,52.97
2019-05-22T04:27:37.616Z,54.64
2019-05-22T04:29:44.295Z,57.52
2019-05-22T04:31:54.338Z,61.52
2019-05-22T04:34:00.970Z,63.71
2019-05-22T04:36:10.261Z,66.67
2019-05-22T04:38:19.069Z,68.77
2019-05-22T04:40:35.799Z,70.35
2019-05-22T04:42:43.697Z,71.20
2019-05-22T04:45:13.759Z,71.52
2019-05-22T04:47:20.624Z,70.23
2019-05-22T04:49:27.189Z,68.32
2019-05-22T04:51:33.979Z,68.02
2019-05-22T04:53:40.753Z,68.46
2019-05-22T04:55:47.175Z,69.35
2019-05-22T04:57:54.194Z,69.95
2019-05-22T05:00:00.946Z,70.30
2019-05-22T05:02:08.176Z,70.38
2019-05-22T05:04:16.350Z,71.43
2019-05-22T05:06:26.353Z,71.53
2019-05-22T05:08:33.695Z,71.42
2019-05-22T05:10:44.673Z,71.42
2019-05-22T05:12:52.048Z,69.66
2019-05-22T05:15:00.418Z,62.53
2019-05-22T05:17:08.674Z,62.15
2019-05-22T05:19:15.449Z,63.88
2019-05-22T05:21:22.013Z,60.36
2019-05-22T05:23:30.283Z,53.72
2019-05-22T05:25:38.123Z,54.37
2019-05-22T05:27:46.998Z,55.26
2019-05-22T05:29:52.829Z,54.30
2019-05-22T05:32:00.147Z,49.45
2019-05-22T05:34:25.372Z,47.04
2019-05-22T05:36:33.197Z,48.61
2019-05-22T05:38:40.592Z,50.79
2019-05-22T05:40:47.218Z,54.77
2019-05-22T05:42:54.567Z,59.37
2019-05-22T05:45:01.607Z,62.20
2019-05-22T05:47:10.337Z,64.66
2019-05-22T05:49:18.766Z,65.66
2019-05-22T05:51:27.594Z,66.24
2019-05-22T05:53:40.185Z,67.17
2019-05-22T05:56:16.828Z,67.52
2019-05-22T05:58:28.849Z,68.55
2019-05-22T06:00:44.545Z,68.91
2019-05-22T06:02:56.446Z,69.04
2019-05-22T06:04:58.315Z,70.11
2019-05-22T06:07:22.853Z,69.73
2019-05-22T06:09:30.030Z,69.80
2019-05-22T06:11:52.835Z,70.24
2019-05-22T06:14:06.854Z,70.61
2019-05-22T06:16:24.945Z,70.50
2019-05-22T06:18:36.582Z,70.32
2019-05-22T06:20:43.008Z,70.98
2019-05-22T06:23:16.640Z,71.76
2019-05-22T06:25:23.399Z,72.06
2019-05-22T06:27:41.683Z,71.89
2019-05-22T06:30:05.183Z,71.81
2019-05-22T06:32:33.050Z,72.26
2019-05-22T06:34:39.792Z,72.57
2019-05-22T06:36:46.643Z,72.26
2019-05-22T06:39:01.000Z,71.86
2019-05-22T06:41:09.966Z,72.27
2019-05-22T06:43:30.366Z,72.19
2019-05-22T06:45:36.982Z,72.31
2019-05-22T06:47:43.596Z,72.72
2019-05-22T06:49:52.261Z,72.82
2019-05-22T06:51:59.205Z,71.75
2019-05-22T06:54:05.782Z,71.70
2019-05-22T06:56:12.329Z,71.97
2019-05-22T06:58:19.821Z,71.75
2019-05-22T07:00:28.641Z,71.59
2019-05-22T07:02:35.745Z,71.68
2019-05-22T07:04:42.905Z,71.94
2019-05-22T07:06:49.819Z,71.45
2019-05-22T07:08:58.363Z,71.68
2019-05-22T07:11:04.996Z,71.88
2019-05-22T07:13:13.929Z,71.94
2019-05-22T07:15:26.041Z,71.76
2019-05-22T07:17:32.463Z,71.69
2019-05-22T07:19:39.389Z,71.38
2019-05-22T07:21:48.372Z,69.46
2019-05-22T07:23:55.865Z,66.01
2019-05-22T07:26:03.651Z,66.47
2019-05-22T07:28:11.516Z,66.23
2019-05-22T07:30:18.597Z,67.10
2019-05-22T07:32:30.719Z,67.63
2019-05-22T07:34:35.094Z,68.56
2019-05-22T07:36:44.821Z,68.23
2019-05-22T07:38:51.651Z,67.67
2019-05-22T07:40:58.546Z,67.32
2019-05-22T07:43:05.958Z,66.93
2019-05-22T07:45:14.296Z,66.44
2019-05-22T07:47:25.043Z,66.68
2019-05-22T07:49:32.884Z,66.08
2019-05-22T07:51:51.829Z,66.83
2019-05-22T07:53:48.569Z,67.60
2019-05-22T07:55:57.742Z,69.05
2019-05-22T07:58:17.146Z,70.31
2019-05-22T08:00:26.255Z,71.66
2019-05-22T08:02:45.081Z,73.41
2019-05-22T08:04:52.954Z,74.70
2019-05-22T08:07:00.485Z,73.65
2019-05-22T08:09:11.128Z,74.66
2019-05-22T08:11:19.953Z,75.44
2019-05-22T08:13:27.661Z,75.07
2019-05-22T08:15:34.602Z,75.16
2019-05-22T08:17:42.775Z,75.62
2019-05-22T08:19:49.541Z,75.81
2019-05-22T08:22:06.920Z,76.64
2019-05-22T08:24:06.135Z,75.75
2019-05-22T08:26:13.824Z,75.03
2019-05-22T08:28:22.757Z,75.18
2019-05-22T08:30:29.490Z,76.51
2019-05-22T08:32:39.012Z,76.56
2019-05-22T08:34:47.175Z,78.65
2019-05-22T08:36:54.945Z,78.90
2019-05-22T08:39:03.899Z,78.38
2019-05-22T08:41:09.919Z,77.55
2019-05-22T08:43:18.484Z,76.76
2019-05-22T08:45:28.053Z,76.67
2019-05-22T08:47:34.917Z,76.24
2019-05-22T08:49:41.927Z,76.52
2019-05-22T08:51:48.974Z,76.32
2019-05-22T08:53:57.393Z,76.13
2019-05-22T08:56:06.294Z,75.72
2019-05-22T08:58:15.023Z,74.92
2019-05-22T09:00:23.693Z,74.81
2019-05-22T09:02:30.819Z,74.37
2019-05-22T09:04:37.449Z,74.05
2019-05-22T09:06:44.199Z,73.56
2019-05-22T09:08:50.858Z,73.43
2019-05-22T09:10:57.341Z,73.89
2019-05-22T09:13:03.998Z,74.27
2019-05-22T09:15:12.422Z,74.72
2019-05-22T09:17:20.372Z,74.77
2019-05-22T09:19:27.640Z,74.64
2019-05-22T09:21:34.706Z,74.91
2019-05-22T09:23:42.309Z,74.79
2019-05-22T09:25:49.298Z,73.94
2019-05-22T09:27:56.318Z,74.35
2019-05-22T09:30:03.282Z,73.77
2019-05-22T09:32:10.244Z,73.21
2019-05-22T09:34:17.078Z,72.75
2019-05-22T09:36:23.836Z,72.18
2019-05-22T09:38:31.657Z,71.79
2019-05-22T09:40:38.400Z,71.36
2019-05-22T09:42:45.044Z,70.84
2019-05-22T09:44:51.548Z,70.90
2019-05-22T09:46:58.373Z,70.83
2019-05-22T09:49:06.190Z,70.57
2019-05-22T09:51:13.087Z,70.77
2019-05-22T09:53:21.672Z,70.27
2019-05-22T09:55:28.949Z,71.03
2019-05-22T09:57:36.079Z,71.57
2019-05-22T09:59:42.878Z,73.11
2019-05-22T10:01:49.759Z,73.77
2019-05-22T10:03:58.220Z,74.74
2019-05-22T10:06:05.559Z,75.68
2019-05-22T10:08:12.809Z,75.27
2019-05-22T10:10:19.897Z,74.84
2019-05-22T10:12:27.080Z,73.69
2019-05-22T10:14:35.462Z,73.11
2019-05-22T10:16:42.072Z,73.34
2019-05-22T10:18:52.833Z,74.06
2019-05-22T10:20:58.025Z,73.77
2019-05-22T10:23:15.490Z,73.82
2019-05-22T10:25:17.112Z,73.36
2019-05-22T10:27:24.361Z,73.76
2019-05-22T10:29:32.442Z,73.76
2019-05-22T10:31:39.038Z,73.75
2019-05-22T10:33:45.668Z,73.38
2019-05-22T10:35:53.931Z,74.10
2019-05-22T10:38:01.690Z,74.08
2019-05-22T10:40:10.296Z,74.27
2019-05-22T10:42:17.448Z,74.16
2019-05-22T10:44:24.083Z,74.26
2019-05-22T10:46:30.771Z,73.13
2019-05-22T10:48:40.227Z,71.37
2019-05-22T10:50:45.704Z,68.85
2019-05-22T10:52:55.006Z,68.39
2019-05-22T10:55:02.098Z,67.98
2019-05-22T10:57:09.434Z,66.90
2019-05-22T10:59:15.939Z,66.60
2019-05-22T11:01:23.507Z,65.66
2019-05-22T11:03:30.948Z,64.76
2019-05-22T11:05:39.007Z,64.29
2019-05-22T11:07:47.044Z,64.08
2019-05-22T11:09:53.718Z,62.63
2019-05-22T11:12:01.161Z,63.07
2019-05-22T11:14:09.595Z,63.20
2019-05-22T11:16:16.943Z,62.64
2019-05-22T11:18:23.552Z,62.14
2019-05-22T11:20:31.019Z,61.46
2019-05-22T11:22:38.218Z,61.57
2019-05-22T11:24:44.768Z,61.53
2019-05-22T11:26:51.877Z,62.53
2019-05-22T11:29:00.035Z,63.32
2019-05-22T11:31:07.379Z,62.79
2019-05-22T11:33:13.992Z,60.82
2019-05-22T11:35:21.638Z,59.74
2019-05-22T11:37:28.270Z,59.86
2019-05-22T11:39:39.429Z,61.48
2019-05-22T11:41:44.761Z,62.06
2019-05-22T11:43:52.017Z,62.13
2019-05-22T11:45:58.797Z,62.07
2019-05-22T11:48:05.528Z,62.43
2019-05-22T11:50:16.274Z,62.61
2019-05-22T11:52:22.894Z,62.09
2019-05-22T11:54:30.044Z,61.50
2019-05-22T11:56:36.907Z,61.02
2019-05-22T11:58:43.984Z,60.67
2019-05-22T12:00:51.267Z,60.13
2019-05-22T12:02:59.662Z,60.75
2019-05-22T12:05:10.754Z,61.09
2019-05-22T12:07:17.764Z,61.24
2019-05-22T12:09:27.290Z,60.72
2019-05-22T12:11:33.777Z,60.53
2019-05-22T12:13:40.316Z,60.45
2019-05-22T12:15:47.126Z,61.25
2019-05-22T12:17:55.168Z,61.61
2019-05-22T12:20:02.318Z,62.91
2019-05-22T12:22:09.661Z,65.33
2019-05-22T12:24:27.068Z,67.59
2019-05-22T12:26:26.336Z,68.50
2019-05-22T12:28:33.073Z,69.12
2019-05-22T12:30:40.394Z,68.30
2019-05-22T12:32:48.569Z,69.14
2019-05-22T12:34:55.856Z,68.78
2019-05-22T12:37:03.132Z,67.36
2019-05-22T12:39:11.802Z,65.66
2019-05-22T12:41:21.089Z,64.29
2019-05-22T12:43:31.833Z,63.48
2019-05-22T12:45:38.390Z,62.62
2019-05-22T12:47:45.531Z,61.91
2019-05-22T12:49:53.279Z,61.50
2019-05-22T12:52:01.745Z,62.25
2019-05-22T12:54:08.827Z,61.97
2019-05-22T12:56:17.218Z,62.43
2019-05-22T12:58:23.832Z,62.80
2019-05-22T13:00:32.930Z,62.72
2019-05-22T13:02:42.626Z,60.95
2019-05-22T13:04:49.508Z,58.98
2019-05-22T13:06:56.305Z,59.99
2019-05-22T13:09:03.816Z,60.12
2019-05-22T13:11:11.455Z,60.90
2019-05-22T13:13:18.018Z,60.21
2019-05-22T13:15:26.110Z,60.55
2019-05-22T13:17:35.311Z,60.06
2019-05-22T13:19:43.849Z,59.54
2019-05-22T13:21:53.948Z,60.18
2019-05-22T13:24:04.784Z,59.73
2019-05-22T13:26:12.035Z,58.77
2019-05-22T13:28:20.107Z,58.14
2019-05-22T13:30:28.568Z,57.93
2019-05-22T13:32:37.777Z,57.69
2019-05-22T13:34:45.105Z,58.35
2019-05-22T13:36:52.850Z,58.07
2019-05-22T13:39:00.344Z,58.84
2019-05-22T13:41:07.373Z,59.06
2019-05-22T13:43:14.339Z,60.76
2019-05-22T13:45:29.397Z,61.86
2019-05-22T13:47:30.965Z,61.51
2019-05-22T13:49:39.523Z,61.82
2019-05-22T13:51:45.974Z,61.22
2019-05-22T13:53:53.946Z,61.56
2019-05-22T13:56:00.744Z,62.65
2019-05-22T13:58:09.005Z,63.29
2019-05-22T14:00:20.162Z,63.40
2019-05-22T14:02:27.820Z,63.52
2019-05-22T14:04:35.513Z,63.46
2019-05-22T14:06:42.411Z,62.42
2019-05-22T14:08:50.023Z,62.71
2019-05-22T14:10:56.982Z,63.26
2019-05-22T14:13:04.602Z,63.15
2019-05-22T14:15:14.739Z,63.71
2019-05-22T14:17:20.670Z,64.29
2019-05-22T14:19:27.154Z,64.78
2019-05-22T14:21:34.373Z,65.17
2019-05-22T14:23:41.104Z,64.94
2019-05-22T14:25:49.661Z,64.94
2019-05-22T14:27:56.712Z,64.71
2019-05-22T14:30:04.289Z,64.74
2019-05-22T14:32:11.894Z,64.72
2019-05-22T14:34:19.343Z,63.89
2019-05-22T14:36:25.857Z,62.84
2019-05-22T14:38:33.183Z,62.57
2019-05-22T14:40:40.443Z,61.46
2019-05-22T14:42:47.317Z,60.99
2019-05-22T14:44:54.089Z,60.31
2019-05-22T14:47:13.376Z,60.04
2019-05-22T14:49:09.338Z,60.53
2019-05-22T14:51:17.817Z,61.75
2019-05-22T14:53:25.079Z,62.67
2019-05-22T14:55:34.892Z,63.00
2019-05-22T14:57:42.065Z,63.91
2019-05-22T14:59:49.025Z,64.66
2019-05-22T15:01:55.704Z,65.05
2019-05-22T15:04:02.963Z,65.22
2019-05-22T15:06:09.643Z,65.07
2019-05-22T15:08:16.244Z,65.07
2019-05-22T15:10:25.270Z,64.43
2019-05-22T15:12:32.126Z,63.89
2019-05-22T15:14:38.693Z,64.25
2019-05-22T15:16:45.285Z,63.47
2019-05-22T15:18:51.850Z,63.71
2019-05-22T15:21:02.786Z,64.33
2019-05-22T15:23:10.203Z,64.08
2019-05-22T15:25:16.928Z,64.55
2019-05-22T15:27:24.517Z,66.22
2019-05-22T15:29:31.507Z,65.16
2019-05-22T15:31:38.533Z,65.14
2019-05-22T15:33:45.227Z,64.68
2019-05-22T15:35:52.673Z,64.34
2019-05-22T15:38:01.224Z,64.92
2019-05-22T15:40:10.895Z,64.86
2019-05-22T15:42:42.911Z,65.17
2019-05-22T15:44:50.655Z,65.10
2019-05-22T15:46:57.262Z,65.54
2019-05-22T15:49:09.396Z,65.52
2019-05-22T15:51:18.305Z,65.69
2019-05-22T15:53:25.592Z,66.33
2019-05-22T15:55:34.134Z,66.78
2019-05-22T15:57:44.247Z,66.98
2019-05-22T15:59:50.968Z,67.24
2019-05-22T16:01:59.747Z,67.13
2019-05-22T16:04:10.246Z,67.37
2019-05-22T16:06:22.099Z,67.59
2019-05-22T16:08:31.024Z,67.84
2019-05-22T16:10:43.439Z,68.15
2019-05-22T16:12:50.749Z,68.21
2019-05-22T16:15:01.527Z,68.13
2019-05-22T16:17:10.041Z,67.59
2019-05-22T16:19:21.375Z,67.85
2019-05-22T16:21:29.520Z,67.87
2019-05-22T16:23:41.197Z,68.11
2019-05-22T16:25:50.725Z,67.89
2019-05-22T16:27:59.033Z,68.08
2019-05-22T16:30:07.383Z,68.46
2019-05-22T16:32:16.643Z,68.29
2019-05-22T16:34:28.316Z,68.39
2019-05-22T16:36:34.140Z,68.68
2019-05-22T16:38:41.718Z,68.94
2019-05-22T16:40:50.299Z,69.07
2019-05-22T16:42:58.909Z,69.30
2019-05-22T16:45:10.760Z,69.59
2019-05-22T16:47:20.083Z,69.71
2019-05-22T16:49:28.117Z,70.04
2019-05-22T16:51:36.505Z,69.53
2019-05-22T16:54:05.436Z,69.54
2019-05-22T16:56:14.892Z,69.37
2019-05-22T16:58:21.891Z,69.79
2019-05-22T17:00:29.659Z,70.42
2019-05-22T17:02:41.807Z,70.77
2019-05-22T17:04:50.263Z,71.06
2019-05-22T17:07:00.324Z,71.09
2019-05-22T17:09:11.554Z,71.48
2019-05-22T17:11:19.619Z,71.27
2019-05-22T17:13:29.707Z,71.66
2019-05-22T17:15:37.387Z,71.78
2019-05-22T17:17:44.665Z,71.63
2019-05-22T17:19:52.331Z,72.24
2019-05-22T17:22:00.112Z,72.39
2019-05-22T17:24:10.923Z,72.26
2019-05-22T17:26:19.487Z,72.22
2019-05-22T17:28:27.347Z,72.26
2019-05-22T17:30:37.252Z,72.49
2019-05-22T17:32:45.456Z,72.74
2019-05-22T17:34:52.054Z,72.90
2019-05-22T17:36:59.637Z,73.24
2019-05-22T17:39:09.729Z,73.26
2019-05-22T17:41:16.862Z,73.17
2019-05-22T17:43:25.869Z,73.27
2019-05-22T17:45:32.763Z,73.52
2019-05-22T17:47:39.977Z,73.40
2019-05-22T17:49:47.054Z,73.44
2019-05-22T17:51:54.839Z,73.60
2019-05-22T17:54:02.809Z,73.49
2019-05-22T17:56:09.430Z,73.59
2019-05-22T17:58:16.107Z,73.80
2019-05-22T18:00:29.164Z,73.83
2019-05-22T18:02:36.498Z,73.96
2019-05-22T18:04:42.863Z,73.89
2019-05-22T18:06:50.815Z,73.92
2019-05-22T18:08:57.296Z,74.15
2019-05-22T18:11:07.804Z,74.06
2019-05-22T18:13:15.238Z,74.21
2019-05-22T18:15:22.385Z,74.46
2019-05-22T18:17:28.968Z,74.77
2019-05-22T18:19:35.983Z,74.63
2019-05-22T18:21:42.714Z,74.78
2019-05-22T18:23:50.058Z,74.67
2019-05-22T18:25:56.527Z,74.69
2019-05-22T18:28:05.078Z,74.66
2019-05-22T18:30:13.796Z,75.25
2019-05-22T18:32:20.223Z,75.18
2019-05-22T18:34:26.709Z,75.08
2019-05-22T18:36:33.424Z,75.30
2019-05-22T18:38:41.065Z,75.68
2019-05-22T18:40:49.243Z,75.57
2019-05-22T18:42:55.948Z,75.56
2019-05-22T18:45:03.242Z,75.85
2019-05-22T18:47:10.730Z,75.77
2019-05-22T18:49:17.619Z,75.88
2019-05-22T18:51:24.794Z,75.91
2019-05-22T18:53:31.386Z,75.92
2019-05-22T18:55:38.024Z,75.89
2019-05-22T18:57:45.217Z,76.05
2019-05-22T19:00:00.166Z,76.11
2019-05-22T19:02:01.420Z,76.16
2019-05-22T19:04:08.010Z,76.62
2019-05-22T19:06:14.898Z,76.55
2019-05-22T19:08:21.496Z,76.85
2019-05-22T19:10:28.831Z,77.07
2019-05-22T19:12:35.395Z,77.55
2019-05-22T19:14:41.965Z,77.88
2019-05-22T19:16:49.434Z,78.24
2019-05-22T19:18:55.996Z,78.81
2019-05-22T19:21:02.893Z,79.06
2019-05-22T19:23:09.970Z,79.40
2019-05-22T19:25:16.999Z,79.70
2019-05-22T19:27:23.550Z,79.84
2019-05-22T19:29:30.928Z,80.52
2019-05-22T19:31:37.450Z,80.62
2019-05-22T19:33:44.105Z,81.06
2019-05-22T19:35:51.516Z,81.19
2019-05-22T19:37:58.439Z,81.42
2019-05-22T19:40:08.488Z,81.65
2019-05-22T19:42:15.171Z,81.76
2019-05-22T19:44:23.461Z,81.82
2019-05-22T19:46:30.458Z,82.02
2019-05-22T19:48:37.391Z,82.31
2019-05-22T19:50:45.924Z,82.44
2019-05-22T19:52:55.404Z,82.45
2019-05-22T19:55:06.958Z,82.65
2019-05-22T19:57:13.056Z,82.85
2019-05-22T19:59:20.206Z,82.98
2019-05-22T20:01:27.226Z,83.08
2019-05-22T20:03:34.466Z,83.34
2019-05-22T20:05:41.195Z,83.42
2019-05-22T20:07:47.590Z,83.59
2019-05-22T20:09:54.569Z,83.76
2019-05-22T20:12:02.127Z,84.01
2019-05-22T20:14:09.736Z,83.90
2019-05-22T20:16:16.220Z,84.04
2019-05-22T20:18:26.366Z,84.16
2019-05-22T20:20:33.049Z,84.29
2019-05-22T20:22:42.216Z,84.38
2019-05-22T20:24:50.814Z,84.47
2019-05-22T20:27:00.943Z,84.37
2019-05-22T20:29:09.225Z,84.27
2019-05-22T20:31:17.035Z,84.47
2019-05-22T20:33:26.950Z,84.52
2019-05-22T20:35:33.698Z,84.54
2019-05-22T20:37:41.969Z,84.68
2019-05-22T20:39:50.012Z,84.69
2019-05-22T20:41:57.142Z,84.62
2019-05-22T20:44:08.300Z,84.68
2019-05-22T20:46:17.481Z,84.97
2019-05-22T20:48:29.275Z,85.08
2019-05-22T20:50:37.460Z,85.07
2019-05-22T20:52:45.758Z,85.12
2019-05-22T20:54:54.920Z,85.33
2019-05-22T20:57:04.377Z,85.44
2019-05-22T20:59:13.040Z,85.35
2019-05-22T21:01:19.615Z,85.40
2019-05-22T21:03:26.502Z,85.34
2019-05-22T21:05:33.489Z,85.39
2019-05-22T21:07:51.201Z,85.49
2019-05-22T21:09:57.777Z,85.35
2019-05-22T21:12:07.076Z,85.45
2019-05-22T21:14:13.823Z,85.49
2019-05-22T21:16:20.856Z,85.42
2019-05-22T21:18:31.228Z,85.35
2019-05-22T21:20:53.543Z,85.29
2019-05-22T21:22:48.259Z,85.31
2019-05-22T21:24:54.872Z,85.16
2019-05-22T21:27:01.703Z,85.18
2019-05-22T21:29:09.094Z,85.19
2019-05-22T21:31:17.172Z,85.30
2019-05-22T21:33:25.603Z,85.43
2019-05-22T21:35:32.160Z,85.44
2019-05-22T21:37:40.533Z,85.66
2019-05-22T21:39:48.054Z,85.83
2019-05-22T21:41:54.619Z,86.06
2019-05-22T21:44:01.110Z,86.26
2019-05-22T21:46:07.760Z,86.55
2019-05-22T21:48:15.143Z,86.82
2019-05-22T21:50:22.814Z,87.05
2019-05-22T21:52:29.912Z,87.55
2019-05-22T21:54:37.830Z,87.68
2019-05-22T21:56:45.205Z,87.75
2019-05-22T21:58:52.160Z,87.98
2019-05-22T22:01:02.767Z,88.17
2019-05-22T22:03:12.852Z,88.23
2019-05-22T22:05:20.272Z,88.50
2019-05-22T22:07:27.645Z,88.68
2019-05-22T22:09:35.174Z,88.68
2019-05-22T22:11:42.151Z,88.94
2019-05-22T22:13:50.089Z,89.03
2019-05-22T22:15:56.807Z,89.14
2019-05-22T22:18:03.827Z,89.35
2019-05-22T22:20:11.813Z,89.27
2019-05-22T22:22:25.489Z,89.20
2019-05-22T22:24:32.454Z,89.20
2019-05-22T22:26:39.571Z,89.23
2019-05-22T22:28:46.816Z,89.28
2019-05-22T22:31:02.801Z,89.62
2019-05-22T22:33:14.856Z,89.67
2019-05-22T22:35:22.775Z,89.57
2019-05-22T22:37:31.297Z,89.54
2019-05-22T22:39:39.856Z,89.52
2019-05-22T22:41:47.566Z,89.50
2019-05-22T22:43:56.346Z,89.38
2019-05-22T22:46:06.570Z,89.31
2019-05-22T22:48:17.673Z,89.24
2019-05-22T22:50:25.534Z,89.17
2019-05-22T22:52:32.824Z,89.11
2019-05-22T22:54:40.514Z,89.11
2019-05-22T22:56:48.360Z,89.12
2019-05-22T22:58:54.990Z,89.14
2019-05-22T23:01:04.065Z,89.15
2019-05-22T23:03:14.437Z,89.08
2019-05-22T23:05:23.302Z,88.97
2019-05-22T23:07:32.617Z,89.00
2019-05-22T23:09:42.722Z,88.93
2019-05-22T23:11:51.778Z,88.85
2019-05-22T23:13:58.087Z,88.69
2019-05-22T23:16:04.545Z,88.54
2019-05-22T23:18:12.900Z,88.49
2019-05-22T23:20:19.588Z,88.34
2019-05-22T23:22:25.532Z,88.17
2019-05-22T23:24:34.166Z,88.06
2019-05-22T23:26:41.831Z,87.98
2019-05-22T23:28:48.473Z,87.85
2019-05-22T23:30:56.923Z,87.78
2019-05-22T23:33:04.973Z,87.62
2019-05-22T23:35:13.264Z,87.52
2019-05-22T23:37:22.400Z,87.39
2019-05-22T23:39:32.712Z,87.29
2019-05-22T23:41:39.717Z,87.16
2019-05-22T23:43:47.215Z,87.06
2019-05-22T23:45:54.826Z,87.00
2019-05-22T23:48:07.730Z,86.94
2019-05-22T23:50:15.544Z,86.93
2019-05-22T23:52:22.324Z,86.87
2019-05-22T23:54:30.180Z,86.79
2019-05-22T23:56:37.067Z,86.81
2019-05-22T23:58:52.675Z,86.74
